Webcam Flughafen St.Gallen-Altenrhein

Live-Bilder und Zeitraffer LSZR / ACH.

 

Live aus Altenrhein
LIVE
LSZR 131450Z 24004KT 160V320 8000 RA FEW038CB BKN100 19/18 Q1019 NOSIG RMK L
Zeitraffer heute
2020-08-13 00:13:55
LSZR 122150Z AUTO /////KT //// // ////// ///// Q////